createdAt,value
2019-02-04T00:00:55.841Z,20.44
2019-02-04T00:01:53.910Z,20.44
2019-02-04T00:02:51.425Z,20.44
2019-02-04T00:03:48.156Z,20.44
2019-02-04T00:04:47.834Z,20.44
2019-02-04T00:05:44.601Z,20.44
2019-02-04T00:06:41.288Z,20.37
2019-02-04T00:07:37.903Z,20.37
2019-02-04T00:08:34.522Z,20.37
2019-02-04T00:09:31.134Z,20.37
2019-02-04T00:10:27.848Z,20.37
2019-02-04T00:11:24.546Z,20.37
2019-02-04T00:12:21.261Z,20.37
2019-02-04T00:13:18.057Z,20.31
2019-02-04T00:14:14.744Z,20.31
2019-02-04T00:15:11.358Z,20.31
2019-02-04T00:16:08.722Z,20.31
2019-02-04T00:17:05.450Z,20.31
2019-02-04T00:18:02.074Z,20.31
2019-02-04T00:18:58.802Z,20.31
2019-02-04T00:19:55.431Z,20.31
2019-02-04T00:20:52.145Z,20.25
2019-02-04T00:21:49.250Z,20.25
2019-02-04T00:22:45.858Z,20.25
2019-02-04T00:23:42.456Z,20.25
2019-02-04T00:24:39.190Z,20.25
2019-02-04T00:25:35.878Z,20.25
2019-02-04T00:26:32.489Z,20.25
2019-02-04T00:27:29.498Z,20.19
2019-02-04T00:28:26.097Z,20.19
2019-02-04T00:29:22.723Z,20.19
2019-02-04T00:30:19.389Z,20.19
2019-02-04T00:31:16.225Z,20.19
2019-02-04T00:32:12.907Z,20.19
2019-02-04T00:33:09.612Z,20.19
2019-02-04T00:34:06.471Z,20.12
2019-02-04T00:35:03.159Z,20.12
2019-02-04T00:35:59.766Z,20.12
2019-02-04T00:36:56.564Z,20.12
2019-02-04T00:37:53.266Z,20.12
2019-02-04T00:38:49.871Z,20.12
2019-02-04T00:39:46.486Z,20.12
2019-02-04T00:40:43.093Z,20.12
2019-02-04T00:41:39.698Z,20.12
2019-02-04T00:42:36.675Z,20.12
2019-02-04T00:43:33.667Z,20.06
2019-02-04T00:44:30.281Z,20.06
2019-02-04T00:45:26.890Z,20.06
2019-02-04T00:46:23.582Z,20.06
2019-02-04T00:47:20.394Z,20.06
2019-02-04T00:48:17.010Z,20.06
2019-02-04T00:49:14.845Z,20.06
2019-02-04T00:50:11.543Z,20.00
2019-02-04T00:51:08.153Z,20.00
2019-02-04T00:52:04.851Z,20.00
2019-02-04T00:53:01.445Z,20.00
2019-02-04T00:53:58.218Z,20.00
2019-02-04T00:54:54.950Z,20.00
2019-02-04T00:55:52.118Z,20.00
2019-02-04T00:56:48.900Z,20.00
2019-02-04T00:57:45.574Z,20.00
2019-02-04T00:58:42.186Z,19.94
2019-02-04T00:59:39.189Z,19.94
2019-02-04T01:00:35.906Z,19.94
2019-02-04T01:01:32.521Z,19.94
2019-02-04T01:02:29.250Z,19.94
2019-02-04T01:03:25.945Z,19.94
2019-02-04T01:04:22.595Z,19.94
2019-02-04T01:05:20.067Z,19.94
2019-02-04T01:06:16.750Z,19.94
2019-02-04T01:07:13.370Z,19.87
2019-02-04T01:08:10.170Z,19.87
2019-02-04T01:09:06.868Z,19.87
2019-02-04T01:10:03.489Z,19.87
2019-02-04T01:11:00.090Z,19.87
2019-02-04T01:11:56.699Z,19.87
2019-02-04T01:12:53.331Z,19.87
2019-02-04T01:13:50.019Z,19.87
2019-02-04T01:14:46.712Z,19.87
2019-02-04T01:15:43.411Z,19.81
2019-02-04T01:16:40.058Z,19.81
2019-02-04T01:17:36.792Z,19.81
2019-02-04T01:18:33.477Z,19.81
2019-02-04T01:19:30.214Z,19.81
2019-02-04T01:20:26.969Z,19.81
2019-02-04T01:21:24.142Z,19.81
2019-02-04T01:22:21.041Z,19.81
2019-02-04T01:23:17.725Z,19.75
2019-02-04T01:24:14.319Z,19.75
2019-02-04T01:25:10.962Z,19.75
2019-02-04T01:26:07.682Z,19.75
2019-02-04T01:27:04.794Z,19.75
2019-02-04T01:28:01.406Z,19.75
2019-02-04T01:28:58.119Z,19.75
2019-02-04T01:29:54.806Z,19.75
2019-02-04T01:30:51.430Z,19.75
2019-02-04T01:31:50.841Z,19.69
2019-02-04T01:32:47.866Z,19.75
2019-02-04T01:33:44.555Z,19.69
2019-02-04T01:34:41.170Z,19.69
2019-02-04T01:35:37.774Z,19.69
2019-02-04T01:36:34.423Z,19.69
2019-02-04T01:37:31.145Z,19.69
2019-02-04T01:38:28.171Z,19.69
2019-02-04T01:39:24.882Z,19.69
2019-02-04T01:40:21.484Z,19.69
2019-02-04T01:41:18.177Z,19.69
2019-02-04T01:42:14.966Z,19.62
2019-02-04T01:43:11.578Z,19.62
2019-02-04T01:44:08.177Z,19.62
2019-02-04T01:45:04.785Z,19.62
2019-02-04T01:46:01.392Z,19.62
2019-02-04T01:46:58.238Z,19.62
2019-02-04T01:47:54.861Z,19.62
2019-02-04T01:48:51.766Z,19.62
2019-02-04T01:49:48.466Z,19.62
2019-02-04T01:50:45.090Z,19.62
2019-02-04T01:51:41.742Z,19.56
2019-02-04T01:52:38.582Z,19.56
2019-02-04T01:53:35.161Z,19.56
2019-02-04T01:54:32.261Z,19.56
2019-02-04T01:55:28.876Z,19.56
2019-02-04T01:56:25.533Z,19.56
2019-02-04T01:57:22.849Z,19.56
2019-02-04T01:58:19.546Z,19.56
2019-02-04T01:59:16.145Z,19.56
2019-02-04T02:00:13.242Z,19.56
2019-02-04T02:01:09.854Z,19.56
2019-02-04T02:02:06.577Z,19.50
2019-02-04T02:03:03.409Z,19.50
2019-02-04T02:04:00.021Z,19.50
2019-02-04T02:04:56.634Z,19.50
2019-02-04T02:05:53.344Z,19.50
2019-02-04T02:06:50.029Z,19.50
2019-02-04T02:07:46.692Z,19.50
2019-02-04T02:08:43.294Z,19.50
2019-02-04T02:09:39.893Z,19.50
2019-02-04T02:10:36.888Z,19.44
2019-02-04T02:11:33.606Z,19.44
2019-02-04T02:12:30.481Z,19.44
2019-02-04T02:13:27.101Z,19.44
2019-02-04T02:14:23.799Z,19.44
2019-02-04T02:15:20.403Z,19.44
2019-02-04T02:16:17.518Z,19.44
2019-02-04T02:17:25.699Z,19.44
2019-02-04T02:18:12.838Z,19.44
2019-02-04T02:19:09.450Z,19.44
2019-02-04T02:20:06.142Z,19.44
2019-02-04T02:21:03.254Z,19.44
2019-02-04T02:22:00.251Z,19.37
2019-02-04T02:22:56.865Z,19.37
2019-02-04T02:23:55.547Z,19.37
2019-02-04T02:24:52.150Z,19.37
2019-02-04T02:25:48.885Z,19.37
2019-02-04T02:26:45.582Z,19.37
2019-02-04T02:27:42.690Z,19.37
2019-02-04T02:28:39.490Z,19.37
2019-02-04T02:29:36.180Z,19.37
2019-02-04T02:30:33.102Z,19.37
2019-02-04T02:31:29.698Z,19.31
2019-02-04T02:32:28.778Z,19.31
2019-02-04T02:33:25.811Z,19.31
2019-02-04T02:34:22.512Z,19.31
2019-02-04T02:35:19.320Z,19.31
2019-02-04T02:36:16.019Z,19.31
2019-02-04T02:37:13.098Z,19.31
2019-02-04T02:38:09.729Z,19.31
2019-02-04T02:39:06.334Z,19.31
2019-02-04T02:40:03.230Z,19.31
2019-02-04T02:40:59.836Z,19.31
2019-02-04T02:41:56.822Z,19.25
2019-02-04T02:42:53.419Z,19.25
2019-02-04T02:43:50.152Z,19.25
2019-02-04T02:44:46.765Z,19.25
2019-02-04T02:45:43.589Z,19.25
2019-02-04T02:46:40.189Z,19.25
2019-02-04T02:47:38.404Z,19.25
2019-02-04T02:48:35.320Z,19.25
2019-02-04T02:49:32.218Z,19.25
2019-02-04T02:50:29.138Z,19.25
2019-02-04T02:51:25.873Z,19.25
2019-02-04T02:52:22.463Z,19.25
2019-02-04T02:53:19.053Z,19.25
2019-02-04T02:54:15.666Z,19.25
2019-02-04T02:55:12.694Z,19.19
2019-02-04T02:56:09.380Z,19.19
2019-02-04T02:57:05.984Z,19.19
2019-02-04T02:58:02.581Z,19.19
2019-02-04T02:58:59.445Z,19.19
2019-02-04T02:59:56.046Z,19.19
2019-02-04T03:00:52.662Z,19.19
2019-02-04T03:01:49.279Z,19.19
2019-02-04T03:02:45.889Z,19.19
2019-02-04T03:03:42.583Z,19.19
2019-02-04T03:04:39.366Z,19.19
2019-02-04T03:05:36.253Z,19.12
2019-02-04T03:06:32.849Z,19.12
2019-02-04T03:07:29.959Z,19.12
2019-02-04T03:08:26.677Z,19.12
2019-02-04T03:09:23.755Z,19.12
2019-02-04T03:10:20.441Z,19.12
2019-02-04T03:11:17.447Z,19.12
2019-02-04T03:12:14.190Z,19.12
2019-02-04T03:13:10.794Z,19.12
2019-02-04T03:14:07.430Z,19.12
2019-02-04T03:15:04.031Z,19.12
2019-02-04T03:16:00.630Z,19.12
2019-02-04T03:16:57.219Z,19.12
2019-02-04T03:17:53.815Z,19.06
2019-02-04T03:18:50.438Z,19.06
2019-02-04T03:19:47.357Z,19.06
2019-02-04T03:20:44.050Z,19.06
2019-02-04T03:21:40.712Z,19.06
2019-02-04T03:22:37.510Z,19.06
2019-02-04T03:23:34.109Z,19.06
2019-02-04T03:24:30.791Z,19.06
2019-02-04T03:25:27.515Z,19.06
2019-02-04T03:26:24.219Z,19.06
2019-02-04T03:27:21.096Z,19.06
2019-02-04T03:28:17.939Z,19.06
2019-02-04T03:29:14.655Z,19.06
2019-02-04T03:30:11.479Z,19.06
2019-02-04T03:31:08.169Z,19.00
2019-02-04T03:32:04.896Z,19.00
2019-02-04T03:33:02.103Z,19.00
2019-02-04T03:33:58.888Z,19.00
2019-02-04T03:34:55.503Z,19.00
2019-02-04T03:35:52.374Z,19.00
2019-02-04T03:36:49.058Z,19.00
2019-02-04T03:37:45.673Z,19.00
2019-02-04T03:38:42.669Z,19.00
2019-02-04T03:39:39.400Z,19.00
2019-02-04T03:40:36.211Z,19.00
2019-02-04T03:41:33.156Z,19.00
2019-02-04T03:42:29.843Z,19.00
2019-02-04T03:43:26.553Z,19.00
2019-02-04T03:44:23.206Z,19.00
2019-02-04T03:45:19.953Z,18.94
2019-02-04T03:46:16.559Z,18.94
2019-02-04T03:47:13.254Z,18.94
2019-02-04T03:48:09.855Z,18.94
2019-02-04T03:49:06.438Z,18.94
2019-02-04T03:50:03.086Z,18.94
2019-02-04T03:50:59.855Z,18.94
2019-02-04T03:51:56.547Z,18.94
2019-02-04T03:52:53.275Z,18.94
2019-02-04T03:53:50.086Z,18.94
2019-02-04T03:54:46.969Z,18.94
2019-02-04T03:55:43.730Z,18.94
2019-02-04T03:56:40.331Z,18.94
2019-02-04T03:57:36.919Z,18.94
2019-02-04T03:58:33.526Z,18.87
2019-02-04T03:59:30.250Z,18.94
2019-02-04T04:00:27.494Z,18.87
2019-02-04T04:01:24.109Z,18.87
2019-02-04T04:02:20.717Z,18.87
2019-02-04T04:03:17.311Z,18.87
2019-02-04T04:04:13.897Z,18.87
2019-02-04T04:05:10.518Z,18.87
2019-02-04T04:06:07.267Z,18.87
2019-02-04T04:07:04.016Z,18.87
2019-02-04T04:08:00.630Z,18.87
2019-02-04T04:08:57.230Z,18.87
2019-02-04T04:09:54.296Z,18.87
2019-02-04T04:10:51.009Z,18.87
2019-02-04T04:11:47.658Z,18.87
2019-02-04T04:12:44.553Z,18.87
2019-02-04T04:13:41.267Z,18.81
2019-02-04T04:14:37.983Z,18.81
2019-02-04T04:15:34.658Z,18.81
2019-02-04T04:16:31.567Z,18.81
2019-02-04T04:17:28.258Z,18.81
2019-02-04T04:18:24.890Z,18.81
2019-02-04T04:19:21.872Z,18.81
2019-02-04T04:20:18.543Z,18.81
2019-02-04T04:21:15.163Z,18.81
2019-02-04T04:22:12.201Z,18.81
2019-02-04T04:23:08.930Z,18.81
2019-02-04T04:24:05.540Z,18.81
2019-02-04T04:25:02.218Z,18.81
2019-02-04T04:25:58.858Z,18.81
2019-02-04T04:26:55.480Z,18.81
2019-02-04T04:27:52.075Z,18.81
2019-02-04T04:28:48.789Z,18.81
2019-02-04T04:29:45.380Z,18.75
2019-02-04T04:30:42.110Z,18.75
2019-02-04T04:31:38.709Z,18.75
2019-02-04T04:32:35.710Z,18.75
2019-02-04T04:33:32.377Z,18.75
2019-02-04T04:34:28.975Z,18.75
2019-02-04T04:35:25.994Z,18.75
2019-02-04T04:36:22.624Z,18.75
2019-02-04T04:37:19.258Z,18.75
2019-02-04T04:38:16.887Z,18.75
2019-02-04T04:39:13.642Z,18.75
2019-02-04T04:40:10.254Z,18.75
2019-02-04T04:41:06.829Z,18.75
2019-02-04T04:42:03.453Z,18.75
2019-02-04T04:43:00.094Z,18.75
2019-02-04T04:43:56.685Z,18.75
2019-02-04T04:44:53.297Z,18.69
2019-02-04T04:45:50.198Z,18.69
2019-02-04T04:46:46.795Z,18.69
2019-02-04T04:47:43.762Z,18.69
2019-02-04T04:48:40.846Z,18.69
2019-02-04T04:49:37.461Z,18.19
2019-02-04T04:50:34.149Z,17.56
2019-02-04T04:51:30.733Z,17.31
2019-02-04T04:52:27.629Z,17.00
2019-02-04T04:53:24.273Z,16.69
2019-02-04T04:54:21.262Z,16.81
2019-02-04T04:55:17.869Z,17.19
2019-02-04T04:56:14.491Z,17.62
2019-02-04T04:57:11.097Z,18.06
2019-02-04T04:58:07.902Z,18.37
2019-02-04T04:59:04.594Z,18.94
2019-02-04T05:00:01.578Z,20.00
2019-02-04T05:00:58.181Z,21.75
2019-02-04T05:01:54.795Z,24.00
2019-02-04T05:02:51.554Z,26.31
2019-02-04T05:03:48.278Z,28.25
2019-02-04T05:04:44.972Z,29.75
2019-02-04T05:05:41.661Z,30.81
2019-02-04T05:06:38.605Z,31.50
2019-02-04T05:07:35.308Z,32.06
2019-02-04T05:08:32.050Z,32.44
2019-02-04T05:09:28.655Z,32.75
2019-02-04T05:10:25.529Z,33.06
2019-02-04T05:11:22.562Z,33.25
2019-02-04T05:12:19.310Z,33.50
2019-02-04T05:13:16.061Z,33.69
2019-02-04T05:14:12.657Z,33.94
2019-02-04T05:15:09.270Z,34.13
2019-02-04T05:16:06.261Z,34.38
2019-02-04T05:17:02.960Z,34.63
2019-02-04T05:17:59.634Z,34.81
2019-02-04T05:18:56.331Z,35.06
2019-02-04T05:19:52.971Z,35.25
2019-02-04T05:20:49.654Z,35.44
2019-02-04T05:21:48.165Z,35.63
2019-02-04T05:22:44.773Z,35.81
2019-02-04T05:23:41.872Z,36.00
2019-02-04T05:24:38.535Z,36.13
2019-02-04T05:25:35.218Z,36.25
2019-02-04T05:26:31.820Z,36.44
2019-02-04T05:27:29.637Z,36.56
2019-02-04T05:28:26.543Z,36.69
2019-02-04T05:29:23.246Z,36.81
2019-02-04T05:30:19.956Z,36.94
2019-02-04T05:31:16.667Z,37.06
2019-02-04T05:32:13.333Z,37.19
2019-02-04T05:33:10.266Z,37.31
2019-02-04T05:34:06.866Z,37.50
2019-02-04T05:35:03.651Z,37.63
2019-02-04T05:36:00.369Z,37.75
2019-02-04T05:36:57.081Z,37.94
2019-02-04T05:37:53.706Z,38.00
2019-02-04T05:38:50.840Z,38.13
2019-02-04T05:39:47.438Z,38.25
2019-02-04T05:40:44.178Z,38.31
2019-02-04T05:41:42.874Z,38.38
2019-02-04T05:42:39.362Z,38.50
2019-02-04T05:43:36.075Z,38.56
2019-02-04T05:44:33.052Z,38.69
2019-02-04T05:45:29.658Z,38.75
2019-02-04T05:46:26.520Z,38.88
2019-02-04T05:47:23.196Z,38.94
2019-02-04T05:48:19.898Z,39.00
2019-02-04T05:49:16.746Z,39.13
2019-02-04T05:50:13.415Z,39.19
2019-02-04T05:51:10.034Z,39.31
2019-02-04T05:52:06.813Z,39.38
2019-02-04T05:53:03.529Z,39.44
2019-02-04T05:54:00.265Z,39.50
2019-02-04T05:54:57.178Z,39.56
2019-02-04T05:55:54.190Z,39.63
2019-02-04T05:56:50.795Z,39.69
2019-02-04T05:57:47.403Z,39.88
2019-02-04T05:58:44.025Z,40.00
2019-02-04T05:59:40.798Z,40.12
2019-02-04T06:00:48.060Z,40.19
2019-02-04T06:01:45.146Z,40.25
2019-02-04T06:02:41.815Z,40.38
2019-02-04T06:03:38.594Z,40.44
2019-02-04T06:04:35.660Z,40.56
2019-02-04T06:05:32.514Z,40.69
2019-02-04T06:06:29.494Z,40.81
2019-02-04T06:07:26.110Z,40.94
2019-02-04T06:08:22.802Z,41.06
2019-02-04T06:09:19.512Z,41.06
2019-02-04T06:10:16.327Z,40.94
2019-02-04T06:11:13.021Z,40.75
2019-02-04T06:12:09.935Z,40.56
2019-02-04T06:13:06.622Z,40.44
2019-02-04T06:14:03.233Z,40.31
2019-02-04T06:15:00.308Z,40.19
2019-02-04T06:15:57.229Z,40.12
2019-02-04T06:16:53.939Z,40.12
2019-02-04T06:17:50.750Z,40.06
2019-02-04T06:18:47.439Z,40.06
2019-02-04T06:19:44.039Z,40.00
2019-02-04T06:20:40.756Z,39.94
2019-02-04T06:21:37.481Z,39.94
2019-02-04T06:22:34.170Z,39.94
2019-02-04T06:23:30.786Z,39.88
2019-02-04T06:24:27.405Z,39.63
2019-02-04T06:25:24.374Z,39.13
2019-02-04T06:26:21.040Z,38.13
2019-02-04T06:27:17.638Z,36.63
2019-02-04T06:28:14.670Z,35.06
2019-02-04T06:29:11.374Z,33.88
2019-02-04T06:30:08.061Z,33.63
2019-02-04T06:31:04.738Z,34.50
2019-02-04T06:32:01.350Z,35.88
2019-02-04T06:32:57.939Z,37.19
2019-02-04T06:33:54.946Z,38.25
2019-02-04T06:34:51.562Z,39.00
2019-02-04T06:35:48.474Z,39.63
2019-02-04T06:36:45.190Z,40.19
2019-02-04T06:37:41.798Z,40.63
2019-02-04T06:38:38.430Z,40.88
2019-02-04T06:39:35.030Z,41.13
2019-02-04T06:40:31.734Z,41.31
2019-02-04T06:41:28.353Z,41.44
2019-02-04T06:42:24.975Z,41.50
2019-02-04T06:43:21.667Z,41.44
2019-02-04T06:44:18.622Z,41.19
2019-02-04T06:45:15.305Z,40.94
2019-02-04T06:46:11.906Z,40.75
2019-02-04T06:47:08.538Z,40.56
2019-02-04T06:48:05.432Z,40.44
2019-02-04T06:49:12.074Z,40.31
2019-02-04T06:50:00.534Z,40.25
2019-02-04T06:50:57.134Z,40.19
2019-02-04T06:51:53.768Z,40.12
2019-02-04T06:52:50.615Z,40.06
2019-02-04T06:53:47.297Z,40.00
2019-02-04T06:54:43.989Z,40.00
2019-02-04T06:55:40.992Z,39.94
2019-02-04T06:56:37.617Z,39.75
2019-02-04T06:57:34.282Z,39.31
2019-02-04T06:58:31.021Z,38.50
2019-02-04T06:59:27.729Z,37.25
2019-02-04T07:00:24.420Z,35.69
2019-02-04T07:01:21.480Z,34.38
2019-02-04T07:02:18.094Z,33.81
2019-02-04T07:03:14.854Z,34.44
2019-02-04T07:04:11.467Z,35.75
2019-02-04T07:05:08.173Z,37.19
2019-02-04T07:06:05.179Z,38.38
2019-02-04T07:07:01.885Z,39.25
2019-02-04T07:07:58.583Z,40.06
2019-02-04T07:08:55.305Z,40.63
2019-02-04T07:09:51.914Z,41.00
2019-02-04T07:10:48.649Z,41.31
2019-02-04T07:11:45.410Z,41.56
2019-02-04T07:12:42.122Z,41.56
2019-02-04T07:13:42.543Z,41.44
2019-02-04T07:14:37.587Z,41.13
2019-02-04T07:15:34.290Z,40.88
2019-02-04T07:16:31.019Z,40.75
2019-02-04T07:17:27.804Z,40.56
2019-02-04T07:18:24.513Z,40.44
2019-02-04T07:19:24.344Z,40.31
2019-02-04T07:20:19.796Z,40.25
2019-02-04T07:21:16.477Z,40.12
2019-02-04T07:22:13.082Z,40.06
2019-02-04T07:23:09.708Z,40.00
2019-02-04T07:24:06.301Z,40.00
2019-02-04T07:25:02.905Z,39.94
2019-02-04T07:25:59.507Z,39.88
2019-02-04T07:26:56.181Z,39.69
2019-02-04T07:27:53.430Z,39.19
2019-02-04T07:28:50.144Z,38.19
2019-02-04T07:29:46.866Z,36.75
2019-02-04T07:30:43.693Z,35.25
2019-02-04T07:31:40.286Z,34.06
2019-02-04T07:32:36.875Z,33.88
2019-02-04T07:33:33.510Z,34.75
2019-02-04T07:34:30.197Z,36.19
2019-02-04T07:35:26.957Z,37.56
2019-02-04T07:36:23.630Z,38.69
2019-02-04T07:37:20.231Z,39.56
2019-02-04T07:38:17.218Z,40.19
2019-02-04T07:39:13.856Z,40.75
2019-02-04T07:40:10.794Z,41.06
2019-02-04T07:41:07.498Z,41.37
2019-02-04T07:42:04.205Z,41.44
2019-02-04T07:43:00.910Z,41.31
2019-02-04T07:43:57.951Z,41.00
2019-02-04T07:44:54.723Z,40.81
2019-02-04T07:45:51.542Z,40.63
2019-02-04T07:46:48.195Z,40.44
2019-02-04T07:47:44.783Z,40.31
2019-02-04T07:48:41.400Z,40.19
2019-02-04T07:49:38.037Z,40.12
2019-02-04T07:50:34.706Z,40.00
2019-02-04T07:51:31.476Z,39.94
2019-02-04T07:52:28.179Z,39.88
2019-02-04T07:53:24.782Z,39.81
2019-02-04T07:54:21.709Z,39.75
2019-02-04T07:55:18.303Z,39.63
2019-02-04T07:56:14.940Z,39.19
2019-02-04T07:57:11.622Z,38.44
2019-02-04T07:58:08.222Z,37.38
2019-02-04T07:59:05.119Z,35.94
2019-02-04T08:00:02.167Z,34.56
2019-02-04T08:00:58.773Z,33.75
2019-02-04T08:01:55.786Z,34.00
2019-02-04T08:02:52.382Z,35.25
2019-02-04T08:03:49.004Z,36.75
2019-02-04T08:04:45.634Z,38.13
2019-02-04T08:05:42.259Z,39.31
2019-02-04T08:06:38.873Z,40.19
2019-02-04T08:07:35.630Z,40.88
2019-02-04T08:08:32.329Z,41.13
2019-02-04T08:09:29.244Z,41.00
2019-02-04T08:10:25.943Z,40.81
2019-02-04T08:11:22.586Z,40.63
2019-02-04T08:12:19.265Z,40.38
2019-02-04T08:13:16.015Z,40.25
2019-02-04T08:14:12.614Z,40.06
2019-02-04T08:15:09.238Z,39.94
2019-02-04T08:16:06.238Z,39.81
2019-02-04T08:17:02.877Z,39.75
2019-02-04T08:17:59.814Z,39.69
2019-02-04T08:18:56.842Z,39.56
2019-02-04T08:19:53.490Z,39.31
2019-02-04T08:20:50.218Z,38.81
2019-02-04T08:21:47.555Z,37.94
2019-02-04T08:22:44.266Z,36.69
2019-02-04T08:23:40.958Z,35.25
2019-02-04T08:24:37.947Z,34.06
2019-02-04T08:25:34.664Z,33.69
2019-02-04T08:26:31.407Z,34.50
2019-02-04T08:27:28.030Z,36.00
2019-02-04T08:28:24.730Z,37.63
2019-02-04T08:29:21.431Z,39.06
2019-02-04T08:30:18.124Z,40.12
2019-02-04T08:31:14.760Z,40.63
2019-02-04T08:32:11.738Z,40.69
2019-02-04T08:33:08.423Z,40.63
2019-02-04T08:34:05.052Z,40.50
2019-02-04T08:35:01.938Z,40.31
2019-02-04T08:35:58.734Z,40.12
2019-02-04T08:36:55.615Z,40.00
2019-02-04T08:37:52.703Z,39.81
2019-02-04T08:38:49.446Z,39.63
2019-02-04T08:39:46.137Z,39.38
2019-02-04T08:40:42.842Z,39.13
2019-02-04T08:41:39.570Z,38.88
2019-02-04T08:42:36.418Z,38.69
2019-02-04T08:43:32.999Z,38.50
2019-02-04T08:44:29.601Z,38.38
2019-02-04T08:45:26.220Z,38.19
2019-02-04T08:46:22.902Z,38.06
2019-02-04T08:47:23.082Z,37.94
2019-02-04T08:48:18.342Z,37.81
2019-02-04T08:49:14.962Z,37.69
2019-02-04T08:50:12.002Z,37.63
2019-02-04T08:51:08.617Z,37.56
2019-02-04T08:52:05.485Z,37.44
2019-02-04T08:53:02.173Z,37.38
2019-02-04T08:53:58.894Z,37.31
2019-02-04T08:54:55.614Z,37.25
2019-02-04T08:55:52.317Z,37.19
2019-02-04T08:56:49.128Z,37.13
2019-02-04T08:57:45.874Z,37.13
2019-02-04T08:58:42.782Z,37.06
2019-02-04T08:59:39.605Z,37.00
2019-02-04T09:00:36.309Z,37.00
2019-02-04T09:01:33.007Z,37.06
2019-02-04T09:02:29.741Z,36.63
2019-02-04T09:03:26.513Z,34.63
2019-02-04T09:04:23.748Z,32.63
2019-02-04T09:05:20.421Z,32.19
2019-02-04T09:06:17.025Z,33.63
2019-02-04T09:07:13.723Z,34.81
2019-02-04T09:08:10.720Z,35.38
2019-02-04T09:09:07.437Z,35.63
2019-02-04T09:10:04.188Z,35.69
2019-02-04T09:11:01.300Z,35.81
2019-02-04T09:11:57.984Z,35.81
2019-02-04T09:12:54.590Z,35.88
2019-02-04T09:13:51.347Z,36.00
2019-02-04T09:14:48.586Z,36.50
2019-02-04T09:15:45.271Z,36.94
2019-02-04T09:16:42.156Z,37.19
2019-02-04T09:17:39.006Z,37.25
2019-02-04T09:18:44.540Z,37.19
2019-02-04T09:19:34.203Z,36.81
2019-02-04T09:20:30.943Z,36.06
2019-02-04T09:21:28.231Z,34.94
2019-02-04T09:22:24.965Z,33.75
2019-02-04T09:23:21.692Z,33.13
2019-02-04T09:24:18.650Z,33.69
2019-02-04T09:25:15.352Z,35.06
2019-02-04T09:26:12.087Z,36.56
2019-02-04T09:27:08.806Z,37.94
2019-02-04T09:28:05.427Z,39.06
2019-02-04T09:29:02.451Z,39.94
2019-02-04T09:29:59.075Z,40.56
2019-02-04T09:30:56.078Z,40.69
2019-02-04T09:31:52.786Z,40.56
2019-02-04T09:32:49.396Z,40.25
2019-02-04T09:33:46.507Z,40.00
2019-02-04T09:34:43.382Z,39.75
2019-02-04T09:35:40.295Z,39.56
2019-02-04T09:36:37.359Z,39.38
2019-02-04T09:37:33.979Z,39.25
2019-02-04T09:38:31.076Z,39.06
2019-02-04T09:39:27.819Z,38.69
2019-02-04T09:40:24.659Z,38.19
2019-02-04T09:41:21.271Z,37.44
2019-02-04T09:42:17.939Z,36.44
2019-02-04T09:43:14.939Z,35.25
2019-02-04T09:44:11.639Z,34.06
2019-02-04T09:45:08.374Z,33.19
2019-02-04T09:46:05.091Z,33.38
2019-02-04T09:47:02.127Z,34.56
2019-02-04T09:47:58.817Z,36.25
2019-02-04T09:48:55.454Z,37.88
2019-02-04T09:49:52.296Z,39.13
2019-02-04T09:50:49.015Z,39.69
2019-02-04T09:51:45.748Z,39.81
2019-02-04T09:52:42.566Z,39.69
2019-02-04T09:53:39.585Z,39.56
2019-02-04T09:54:36.318Z,39.38
2019-02-04T09:55:33.092Z,39.13
2019-02-04T09:56:29.843Z,38.69
2019-02-04T09:57:26.826Z,38.00
2019-02-04T09:58:23.543Z,37.13
2019-02-04T09:59:20.328Z,36.13
2019-02-04T10:00:17.073Z,35.06
2019-02-04T10:01:13.766Z,34.06
2019-02-04T10:02:10.420Z,33.31
2019-02-04T10:03:07.450Z,32.63
2019-02-04T10:04:04.374Z,31.94
2019-02-04T10:05:01.025Z,31.25
2019-02-04T10:05:57.840Z,30.69
2019-02-04T10:06:55.468Z,30.19
2019-02-04T10:07:52.274Z,29.81
2019-02-04T10:08:49.525Z,29.56
2019-02-04T10:09:46.215Z,29.31
2019-02-04T10:10:42.999Z,29.12
2019-02-04T10:11:39.717Z,29.00
2019-02-04T10:12:36.420Z,28.87
2019-02-04T10:13:33.023Z,28.75
2019-02-04T10:14:30.027Z,28.62
2019-02-04T10:15:26.933Z,28.56
2019-02-04T10:16:23.699Z,28.50
2019-02-04T10:17:20.397Z,28.38
2019-02-04T10:18:17.156Z,28.31
2019-02-04T10:19:13.918Z,28.25
2019-02-04T10:20:10.677Z,28.19
2019-02-04T10:21:07.357Z,28.12
2019-02-04T10:22:04.107Z,28.06
2019-02-04T10:23:00.830Z,28.00
2019-02-04T10:23:57.560Z,27.94
2019-02-04T10:24:54.578Z,27.87
2019-02-04T10:25:51.291Z,27.81
2019-02-04T10:26:48.005Z,27.69
2019-02-04T10:27:44.738Z,27.62
2019-02-04T10:28:42.376Z,27.56
2019-02-04T10:29:39.331Z,27.50
2019-02-04T10:30:36.493Z,27.44
2019-02-04T10:31:33.502Z,27.37
2019-02-04T10:32:30.142Z,27.31
2019-02-04T10:33:26.975Z,27.25
2019-02-04T10:34:23.699Z,27.19
2019-02-04T10:35:20.378Z,27.13
2019-02-04T10:36:17.840Z,27.06
2019-02-04T10:37:14.740Z,27.00
2019-02-04T10:38:11.430Z,27.00
2019-02-04T10:39:08.894Z,26.94
2019-02-04T10:40:05.548Z,26.87
2019-02-04T10:41:02.643Z,26.81
2019-02-04T10:41:59.627Z,26.75
2019-02-04T10:42:56.363Z,26.69
2019-02-04T10:43:53.178Z,26.62
2019-02-04T10:44:49.901Z,26.62
2019-02-04T10:45:46.867Z,26.56
2019-02-04T10:46:43.637Z,26.50
2019-02-04T10:47:40.358Z,26.44
2019-02-04T10:48:38.346Z,26.37
2019-02-04T10:49:35.099Z,26.31
2019-02-04T10:50:31.811Z,26.31
2019-02-04T10:51:28.616Z,26.25
2019-02-04T10:52:25.342Z,26.19
2019-02-04T10:53:22.009Z,26.19
2019-02-04T10:54:18.896Z,26.12
2019-02-04T10:55:15.747Z,26.06
2019-02-04T10:56:16.418Z,26.06
2019-02-04T10:57:13.404Z,26.00
2019-02-04T10:58:10.090Z,25.94
2019-02-04T10:59:07.146Z,25.94
2019-02-04T11:00:03.848Z,25.88
2019-02-04T11:01:00.568Z,25.81
2019-02-04T11:01:57.342Z,25.81
2019-02-04T11:02:54.048Z,25.75
2019-02-04T11:03:51.038Z,25.75
2019-02-04T11:04:47.766Z,25.69
2019-02-04T11:05:44.581Z,25.62
2019-02-04T11:06:41.606Z,25.62
2019-02-04T11:07:38.313Z,25.56
2019-02-04T11:08:35.203Z,25.56
2019-02-04T11:09:32.329Z,25.50
2019-02-04T11:10:32.043Z,25.50
2019-02-04T11:11:28.792Z,25.44
2019-02-04T11:12:25.538Z,25.37
2019-02-04T11:13:22.292Z,25.37
2019-02-04T11:14:19.008Z,25.31
2019-02-04T11:15:15.987Z,25.31
2019-02-04T11:16:12.730Z,25.25
2019-02-04T11:17:09.691Z,25.25
2019-02-04T11:18:06.417Z,25.19
2019-02-04T11:19:03.247Z,25.19
2019-02-04T11:19:59.926Z,25.12
2019-02-04T11:20:58.372Z,25.12
2019-02-04T11:21:55.055Z,25.12
2019-02-04T11:22:52.186Z,25.06
2019-02-04T11:23:48.915Z,25.06
2019-02-04T11:24:45.836Z,25.00
2019-02-04T11:25:42.566Z,25.00
2019-02-04T11:26:39.280Z,24.94
2019-02-04T11:27:35.977Z,24.94
2019-02-04T11:28:32.746Z,24.87
2019-02-04T11:29:29.441Z,24.87
2019-02-04T11:30:26.138Z,24.87
2019-02-04T11:31:23.147Z,24.81
2019-02-04T11:32:19.875Z,24.81
2019-02-04T11:33:16.600Z,24.75
2019-02-04T11:34:13.345Z,24.75
2019-02-04T11:35:11.227Z,24.69
2019-02-04T11:36:08.118Z,24.69
2019-02-04T11:37:05.138Z,24.63
2019-02-04T11:38:01.944Z,24.63
2019-02-04T11:38:58.705Z,24.56
2019-02-04T11:39:55.692Z,24.56
2019-02-04T11:40:52.426Z,24.56
2019-02-04T11:41:49.124Z,24.50
2019-02-04T11:42:46.390Z,24.50
2019-02-04T11:43:43.148Z,24.50
2019-02-04T11:44:39.870Z,24.44
2019-02-04T11:45:36.552Z,24.44
2019-02-04T11:46:33.504Z,24.37
2019-02-04T11:47:30.154Z,24.37
2019-02-04T11:48:26.887Z,24.31
2019-02-04T11:49:23.716Z,24.31
2019-02-04T11:50:20.406Z,24.31
2019-02-04T11:51:17.004Z,24.25
2019-02-04T11:52:13.799Z,24.25
2019-02-04T11:53:10.566Z,24.25
2019-02-04T11:54:07.752Z,24.19
2019-02-04T11:55:04.491Z,24.19
2019-02-04T11:56:01.190Z,24.19
2019-02-04T11:56:57.794Z,24.31
2019-02-04T11:57:54.494Z,24.50
2019-02-04T11:58:51.571Z,24.81
2019-02-04T11:59:48.195Z,25.31
2019-02-04T12:00:44.826Z,26.06
2019-02-04T12:01:41.523Z,27.69
2019-02-04T12:02:38.177Z,29.81
2019-02-04T12:03:34.889Z,31.81
2019-02-04T12:04:31.635Z,33.44
2019-02-04T12:05:28.290Z,34.69
2019-02-04T12:06:24.980Z,35.56
2019-02-04T12:07:21.821Z,36.19
2019-02-04T12:08:18.534Z,36.69
2019-02-04T12:09:15.202Z,37.13
2019-02-04T12:10:12.470Z,37.50
2019-02-04T12:11:09.458Z,37.88
2019-02-04T12:12:06.243Z,38.13